createdAt,value
2023-12-26T00:00:40.333Z,8.34
2023-12-26T00:03:08.123Z,7.98
2023-12-26T00:05:35.242Z,8.27
2023-12-26T00:08:05.142Z,8.46
2023-12-26T00:10:31.944Z,8.38
2023-12-26T00:13:01.288Z,7.94
2023-12-26T00:15:28.603Z,8.08
2023-12-26T00:17:55.428Z,8.58
2023-12-26T00:20:22.361Z,8.61
2023-12-26T00:22:49.037Z,8.42
2023-12-26T00:25:15.755Z,8.64
2023-12-26T00:27:43.977Z,7.24
2023-12-26T00:30:11.120Z,8.47
2023-12-26T00:32:37.971Z,8.62
2023-12-26T00:35:05.420Z,8.16
2023-12-26T00:37:33.215Z,8.42
2023-12-26T00:40:02.965Z,8.41
2023-12-26T00:42:32.024Z,8.49
2023-12-26T00:44:59.944Z,8.31
2023-12-26T00:47:26.799Z,8.43
2023-12-26T00:49:57.245Z,8.45
2023-12-26T00:52:24.018Z,8.23
2023-12-26T00:54:50.717Z,8.32
2023-12-26T00:57:17.499Z,8.19
2023-12-26T00:59:45.353Z,8.46
2023-12-26T01:02:12.296Z,8.50
2023-12-26T01:04:38.995Z,8.32
2023-12-26T01:07:06.610Z,8.31
2023-12-26T01:09:33.340Z,7.60
2023-12-26T01:11:59.992Z,8.15
2023-12-26T01:14:26.640Z,8.30
2023-12-26T01:16:53.312Z,8.77
2023-12-26T01:19:20.027Z,7.80
2023-12-26T01:21:46.733Z,8.55
2023-12-26T01:24:13.492Z,8.22
2023-12-26T01:26:40.232Z,8.05
2023-12-26T01:29:08.649Z,8.75
2023-12-26T01:31:36.750Z,8.11
2023-12-26T01:34:06.580Z,8.07
2023-12-26T01:36:36.636Z,8.51
2023-12-26T01:39:05.314Z,8.54
2023-12-26T01:41:31.959Z,7.02
2023-12-26T01:43:58.971Z,8.42
2023-12-26T01:46:25.653Z,7.44
2023-12-26T01:48:53.080Z,7.91
2023-12-26T01:51:19.979Z,8.13
2023-12-26T01:53:46.714Z,7.27
2023-12-26T01:56:16.265Z,7.82
2023-12-26T01:58:44.149Z,8.18
2023-12-26T02:01:10.976Z,7.88
2023-12-26T02:03:37.728Z,7.94
2023-12-26T02:06:04.778Z,8.30
2023-12-26T02:08:31.554Z,8.39
2023-12-26T02:10:58.534Z,8.45
2023-12-26T02:13:25.179Z,8.55
2023-12-26T02:15:52.598Z,8.10
2023-12-26T02:18:19.446Z,8.36
2023-12-26T02:20:46.376Z,8.19
2023-12-26T02:23:13.165Z,7.48
2023-12-26T02:25:39.826Z,7.68
2023-12-26T02:28:07.027Z,8.40
2023-12-26T02:30:33.787Z,7.80
2023-12-26T02:33:01.664Z,7.22
2023-12-26T02:35:28.861Z,8.14
2023-12-26T02:37:55.597Z,7.94
2023-12-26T02:40:22.397Z,7.20
2023-12-26T02:42:49.056Z,8.45
2023-12-26T02:45:16.369Z,7.75
2023-12-26T02:47:43.283Z,7.72
2023-12-26T02:50:10.028Z,7.75
2023-12-26T02:52:36.728Z,8.07
2023-12-26T02:55:03.555Z,7.95
2023-12-26T02:57:30.234Z,7.95
2023-12-26T02:59:57.050Z,7.86
2023-12-26T03:02:23.768Z,8.12
2023-12-26T03:04:51.085Z,7.93
2023-12-26T03:07:17.758Z,8.39
2023-12-26T03:09:44.373Z,8.09
2023-12-26T03:12:11.164Z,7.88
2023-12-26T03:14:37.857Z,8.67
2023-12-26T03:17:04.744Z,8.31
2023-12-26T03:19:31.569Z,8.12
2023-12-26T03:21:58.374Z,8.43
2023-12-26T03:24:24.990Z,7.99
2023-12-26T03:26:51.787Z,8.41
2023-12-26T03:29:18.453Z,8.42
2023-12-26T03:31:45.535Z,8.44
2023-12-26T03:34:13.085Z,8.08
2023-12-26T03:36:44.799Z,8.26
2023-12-26T03:39:11.691Z,8.54
2023-12-26T03:41:38.505Z,8.27
2023-12-26T03:44:05.447Z,8.37
2023-12-26T03:46:32.083Z,8.36
2023-12-26T03:48:58.900Z,8.16
2023-12-26T03:51:25.697Z,7.94
2023-12-26T03:53:52.356Z,7.96
2023-12-26T03:56:19.019Z,8.61
2023-12-26T03:58:45.891Z,8.08
2023-12-26T04:01:14.003Z,8.36
2023-12-26T04:03:40.793Z,8.40
2023-12-26T04:06:07.499Z,8.38
2023-12-26T04:08:34.110Z,8.31
2023-12-26T04:11:00.798Z,8.23
2023-12-26T04:13:27.461Z,8.17
2023-12-26T04:15:54.118Z,7.22
2023-12-26T04:18:21.026Z,8.32
2023-12-26T04:20:47.823Z,7.92
2023-12-26T04:23:14.454Z,7.60
2023-12-26T04:25:41.145Z,8.07
2023-12-26T04:28:07.959Z,8.06
2023-12-26T04:30:34.760Z,8.28
2023-12-26T04:33:02.531Z,8.40
2023-12-26T04:35:29.297Z,8.32
2023-12-26T04:37:55.940Z,8.26
2023-12-26T04:40:22.699Z,8.31
2023-12-26T04:42:49.339Z,8.16
2023-12-26T04:45:16.349Z,8.57
2023-12-26T04:47:43.406Z,8.20
2023-12-26T04:50:10.137Z,8.21
2023-12-26T04:52:36.835Z,7.58
2023-12-26T04:55:03.875Z,8.19
2023-12-26T04:57:30.656Z,8.06
2023-12-26T04:59:57.332Z,8.22
2023-12-26T05:02:24.087Z,8.62
2023-12-26T05:04:50.911Z,7.95
2023-12-26T05:07:17.566Z,8.15
2023-12-26T05:09:44.750Z,8.19
2023-12-26T05:12:11.493Z,8.70
2023-12-26T05:14:38.302Z,8.17
2023-12-26T05:17:04.984Z,8.58
2023-12-26T05:19:31.814Z,8.41
2023-12-26T05:21:58.504Z,8.27
2023-12-26T05:24:25.165Z,8.40
2023-12-26T05:26:51.860Z,8.52
2023-12-26T05:29:18.537Z,8.71
2023-12-26T05:31:45.834Z,8.50
2023-12-26T05:34:12.641Z,8.70
2023-12-26T05:36:39.464Z,8.70
2023-12-26T05:39:07.783Z,8.19
2023-12-26T05:41:34.420Z,8.32
2023-12-26T05:44:01.082Z,7.92
2023-12-26T05:46:30.932Z,8.57
2023-12-26T05:48:58.328Z,8.85
2023-12-26T05:51:26.355Z,8.54
2023-12-26T05:53:53.242Z,8.51
2023-12-26T05:56:20.468Z,8.27
2023-12-26T05:58:47.188Z,8.11
2023-12-26T06:01:13.910Z,8.41
2023-12-26T06:03:40.645Z,8.58
2023-12-26T06:06:11.367Z,8.27
2023-12-26T06:08:38.696Z,8.22
2023-12-26T06:11:05.361Z,8.64
2023-12-26T06:13:32.047Z,8.41
2023-12-26T06:15:58.729Z,8.94
2023-12-26T06:18:25.644Z,8.09
2023-12-26T06:20:52.421Z,8.54
2023-12-26T06:23:19.274Z,8.63
2023-12-26T06:25:47.344Z,8.88
2023-12-26T06:28:14.012Z,9.09
2023-12-26T06:30:40.720Z,8.66
2023-12-26T06:33:07.548Z,8.82
2023-12-26T06:35:34.307Z,8.75
2023-12-26T06:38:01.037Z,8.84
2023-12-26T06:40:27.819Z,8.85
2023-12-26T06:42:54.562Z,8.66
2023-12-26T06:45:21.305Z,8.90
2023-12-26T06:47:48.102Z,8.22
2023-12-26T06:50:14.865Z,8.74
2023-12-26T06:52:41.529Z,8.99
2023-12-26T06:55:08.471Z,9.03
2023-12-26T06:57:35.125Z,8.73
2023-12-26T07:00:02.044Z,8.99
2023-12-26T07:02:29.204Z,8.90
2023-12-26T07:04:55.880Z,7.99
2023-12-26T07:07:22.559Z,8.91
2023-12-26T07:09:50.956Z,8.55
2023-12-26T07:12:18.302Z,8.38
2023-12-26T07:14:45.100Z,9.05
2023-12-26T07:17:11.781Z,9.34
2023-12-26T07:19:38.613Z,9.04
2023-12-26T07:22:05.443Z,8.73
2023-12-26T07:24:32.091Z,9.20
2023-12-26T07:26:58.823Z,8.82
2023-12-26T07:29:28.342Z,8.63
2023-12-26T07:31:55.074Z,9.30
2023-12-26T07:34:21.841Z,9.46
2023-12-26T07:36:48.613Z,9.11
2023-12-26T07:39:16.354Z,8.86
2023-12-26T07:41:43.217Z,9.43
2023-12-26T07:44:10.109Z,8.52
2023-12-26T07:46:37.741Z,9.36
2023-12-26T07:49:04.682Z,8.23
2023-12-26T07:51:31.628Z,9.33
2023-12-26T07:53:58.305Z,8.90
2023-12-26T07:56:26.707Z,9.34
2023-12-26T07:58:54.082Z,9.26
2023-12-26T08:01:20.763Z,9.15
2023-12-26T08:03:47.555Z,9.34
2023-12-26T08:06:14.342Z,9.03
2023-12-26T08:08:41.173Z,9.39
2023-12-26T08:11:07.866Z,9.46
2023-12-26T08:13:34.531Z,8.04
2023-12-26T08:16:01.598Z,9.52
2023-12-26T08:18:28.392Z,9.43
2023-12-26T08:20:55.122Z,8.65
2023-12-26T08:23:21.823Z,9.13
2023-12-26T08:25:48.580Z,9.80
2023-12-26T08:28:15.276Z,8.82
2023-12-26T08:30:42.114Z,9.63
2023-12-26T08:33:09.178Z,9.62
2023-12-26T08:35:36.043Z,9.82
2023-12-26T08:38:02.896Z,8.02
2023-12-26T08:40:29.595Z,9.63
2023-12-26T08:42:56.398Z,9.59
2023-12-26T08:45:23.270Z,9.50
2023-12-26T08:47:51.071Z,8.70
2023-12-26T08:50:20.846Z,9.11
2023-12-26T08:52:47.922Z,9.80
2023-12-26T08:55:15.932Z,9.62
2023-12-26T08:57:42.642Z,9.64
2023-12-26T09:00:11.214Z,9.37
2023-12-26T09:02:39.187Z,7.88
2023-12-26T09:05:09.226Z,8.93
2023-12-26T09:07:35.865Z,8.82
2023-12-26T09:10:03.688Z,9.22
2023-12-26T09:12:30.357Z,9.25
2023-12-26T09:14:57.053Z,8.97
2023-12-26T09:17:23.958Z,9.09
2023-12-26T09:19:50.986Z,9.10
2023-12-26T09:22:18.207Z,9.33
2023-12-26T09:24:44.892Z,9.32
2023-12-26T09:27:11.947Z,8.86
2023-12-26T09:29:38.773Z,9.41
2023-12-26T09:32:05.885Z,9.08
2023-12-26T09:36:59.474Z,8.97
2023-12-26T09:39:26.313Z,8.93
2023-12-26T09:41:54.204Z,9.19
2023-12-26T09:44:23.983Z,9.13
2023-12-26T09:46:53.031Z,8.88
2023-12-26T09:49:19.885Z,9.02
2023-12-26T09:51:46.841Z,9.33
2023-12-26T09:54:13.820Z,8.63
2023-12-26T09:56:41.851Z,9.35
2023-12-26T09:59:08.880Z,9.54
2023-12-26T10:01:35.542Z,9.42
2023-12-26T10:04:04.547Z,9.23
2023-12-26T10:06:31.639Z,8.54
2023-12-26T10:08:58.981Z,9.31
2023-12-26T10:11:27.804Z,9.00
2023-12-26T10:13:55.829Z,9.05
2023-12-26T10:16:22.840Z,8.49
2023-12-26T10:18:51.652Z,9.13
2023-12-26T10:21:18.908Z,9.38
2023-12-26T10:23:46.547Z,9.40
2023-12-26T10:26:13.305Z,9.44
2023-12-26T10:28:40.372Z,9.40
2023-12-26T10:31:12.236Z,9.15
2023-12-26T10:33:39.074Z,9.12
2023-12-26T10:36:06.827Z,9.47
2023-12-26T10:38:33.998Z,8.64
2023-12-26T10:41:15.680Z,7.66
2023-12-26T10:43:42.444Z,9.07
2023-12-26T10:46:09.274Z,9.12
2023-12-26T10:48:36.579Z,9.16
2023-12-26T10:51:03.652Z,9.41
2023-12-26T10:54:16.233Z,9.16
2023-12-26T10:56:43.362Z,9.16
2023-12-26T10:59:10.191Z,9.29
2023-12-26T11:01:36.979Z,9.20
2023-12-26T11:04:03.799Z,9.18
2023-12-26T11:06:30.803Z,8.82
2023-12-26T11:08:57.630Z,9.21
2023-12-26T11:11:24.304Z,8.88
2023-12-26T11:13:51.285Z,9.48
2023-12-26T11:16:17.957Z,9.47
2023-12-26T11:18:45.227Z,9.11
2023-12-26T11:21:12.123Z,9.26
2023-12-26T11:23:38.891Z,9.59
2023-12-26T11:26:05.572Z,9.06
2023-12-26T11:28:32.193Z,9.32
2023-12-26T11:30:58.972Z,9.11
2023-12-26T11:33:25.914Z,9.58
2023-12-26T11:35:52.746Z,9.10
2023-12-26T11:38:19.642Z,9.11
2023-12-26T11:40:46.311Z,9.59
2023-12-26T11:43:12.991Z,9.17
2023-12-26T11:45:39.626Z,9.13
2023-12-26T11:48:06.396Z,9.21
2023-12-26T11:50:33.235Z,9.14
2023-12-26T11:53:00.038Z,9.15
2023-12-26T11:55:26.699Z,8.68
2023-12-26T11:57:53.334Z,9.30
2023-12-26T12:00:20.048Z,9.16
2023-12-26T12:02:46.775Z,9.00
2023-12-26T12:05:15.024Z,9.25
2023-12-26T12:07:41.670Z,9.27
2023-12-26T12:10:09.931Z,9.39
2023-12-26T12:12:36.631Z,9.18
2023-12-26T12:15:03.761Z,9.13
2023-12-26T12:17:30.480Z,9.04
2023-12-26T12:19:57.243Z,9.32
2023-12-26T12:22:27.217Z,9.25
2023-12-26T12:24:55.137Z,8.64
2023-12-26T12:27:23.068Z,9.07
2023-12-26T12:29:59.645Z,8.59
2023-12-26T12:32:33.313Z,9.10
2023-12-26T12:35:19.163Z,9.02
2023-12-26T12:37:49.690Z,8.36
2023-12-26T12:40:16.741Z,9.28
2023-12-26T12:42:43.513Z,8.62
2023-12-26T12:45:10.312Z,8.93
2023-12-26T12:47:37.363Z,8.49
2023-12-26T12:50:04.951Z,8.81
2023-12-26T12:52:48.015Z,8.28
2023-12-26T12:55:14.683Z,8.40
2023-12-26T12:57:41.458Z,8.67
2023-12-26T13:00:08.100Z,8.87
2023-12-26T13:02:34.822Z,8.62
2023-12-26T13:05:01.541Z,8.20
2023-12-26T13:07:28.251Z,8.97
2023-12-26T13:09:54.896Z,8.37
2023-12-26T13:12:21.579Z,8.87
2023-12-26T13:14:48.351Z,8.10
2023-12-26T13:17:15.129Z,8.95
2023-12-26T13:19:41.902Z,8.52
2023-12-26T13:22:16.505Z,8.67
2023-12-26T13:24:49.241Z,8.68
2023-12-26T13:27:22.631Z,8.51
2023-12-26T13:29:49.318Z,9.02
2023-12-26T13:32:16.030Z,8.82
2023-12-26T13:34:42.742Z,8.56
2023-12-26T13:37:09.448Z,8.70
2023-12-26T13:39:36.156Z,8.13
2023-12-26T13:42:03.061Z,9.02
2023-12-26T13:44:29.748Z,9.02
2023-12-26T13:46:56.376Z,9.01
2023-12-26T13:49:23.229Z,7.19
2023-12-26T13:51:50.253Z,8.38
2023-12-26T13:54:23.996Z,8.51
2023-12-26T13:56:50.870Z,6.04
2023-12-26T13:59:17.544Z,8.52
2023-12-26T14:01:44.218Z,8.48
2023-12-26T14:04:11.077Z,8.43
2023-12-26T14:06:37.911Z,8.26
2023-12-26T14:09:05.071Z,8.54
2023-12-26T14:11:31.820Z,8.20
2023-12-26T14:13:58.833Z,8.57
2023-12-26T14:16:25.640Z,7.70
2023-12-26T14:18:52.512Z,8.70
2023-12-26T14:21:19.384Z,8.63
2023-12-26T14:23:46.132Z,8.15
2023-12-26T14:26:12.969Z,8.65
2023-12-26T14:28:39.745Z,8.61
2023-12-26T14:31:06.560Z,7.82
2023-12-26T14:33:33.570Z,7.57
2023-12-26T14:36:00.707Z,8.35
2023-12-26T14:38:27.406Z,8.38
2023-12-26T14:40:57.586Z,8.76
2023-12-26T14:43:24.720Z,8.49
2023-12-26T14:45:51.377Z,8.64
2023-12-26T14:48:18.216Z,7.97
2023-12-26T14:50:46.022Z,8.44
2023-12-26T14:53:12.735Z,8.39
2023-12-26T14:55:39.365Z,8.75
2023-12-26T14:58:06.622Z,8.34
2023-12-26T15:00:33.595Z,8.51
2023-12-26T15:03:00.490Z,8.25
2023-12-26T15:05:27.558Z,8.22
2023-12-26T15:07:54.314Z,8.48
2023-12-26T15:10:21.217Z,8.66
2023-12-26T15:12:47.833Z,8.22
2023-12-26T15:15:14.645Z,7.94
2023-12-26T15:17:41.832Z,8.23
2023-12-26T15:20:12.153Z,8.25
2023-12-26T15:22:39.426Z,7.77
2023-12-26T15:25:06.395Z,8.13
2023-12-26T15:27:33.127Z,8.19
2023-12-26T15:29:59.945Z,8.22
2023-12-26T15:32:26.611Z,7.89
2023-12-26T15:34:53.398Z,8.10
2023-12-26T15:37:20.102Z,8.10
2023-12-26T15:39:46.892Z,8.59
2023-12-26T15:42:13.653Z,7.91
2023-12-26T15:44:42.155Z,7.66
2023-12-26T15:47:11.578Z,8.46
2023-12-26T15:49:38.462Z,8.46
2023-12-26T15:52:05.387Z,8.54
2023-12-26T15:54:32.508Z,8.02
2023-12-26T15:56:59.469Z,7.74
2023-12-26T15:59:26.190Z,7.97
2023-12-26T16:01:52.865Z,8.04
2023-12-26T16:04:19.620Z,7.99
2023-12-26T16:06:46.529Z,7.75
2023-12-26T16:09:13.476Z,8.02
2023-12-26T16:11:40.316Z,7.12
2023-12-26T16:14:09.269Z,8.28
2023-12-26T16:16:42.265Z,7.91
2023-12-26T16:19:11.160Z,6.67
2023-12-26T16:21:40.800Z,7.90
2023-12-26T16:24:08.028Z,8.44
2023-12-26T16:26:34.877Z,7.73
2023-12-26T16:29:01.694Z,8.33
2023-12-26T16:31:28.530Z,7.96
2023-12-26T16:33:55.802Z,8.24
2023-12-26T16:36:22.801Z,8.14
2023-12-26T16:38:49.547Z,7.06
2023-12-26T16:41:16.267Z,8.15
2023-12-26T16:43:43.001Z,8.08
2023-12-26T16:46:10.232Z,8.33
2023-12-26T16:48:39.997Z,7.85
2023-12-26T16:51:08.218Z,8.19
2023-12-26T16:53:38.366Z,8.12
2023-12-26T16:56:09.289Z,7.93
2023-12-26T16:58:36.643Z,7.73
2023-12-26T17:01:05.108Z,7.95
2023-12-26T17:03:32.272Z,8.31
2023-12-26T17:06:01.702Z,8.07
2023-12-26T17:08:28.438Z,7.73
2023-12-26T17:10:57.445Z,7.90
2023-12-26T17:13:24.561Z,7.57
2023-12-26T17:15:51.230Z,8.11
2023-12-26T17:18:18.064Z,6.38
2023-12-26T17:20:44.948Z,8.03
2023-12-26T17:23:11.724Z,7.98
2023-12-26T17:25:40.064Z,7.81
2023-12-26T17:28:08.502Z,8.04
2023-12-26T17:30:36.869Z,7.95
2023-12-26T17:33:04.299Z,7.75
2023-12-26T17:35:31.094Z,7.82
2023-12-26T17:37:58.195Z,8.10
2023-12-26T17:40:24.944Z,8.12
2023-12-26T17:42:51.708Z,7.95
2023-12-26T17:45:18.384Z,6.86
2023-12-26T17:47:45.078Z,7.82
2023-12-26T17:50:11.994Z,7.78
2023-12-26T17:52:38.858Z,7.42
2023-12-26T17:55:06.107Z,7.65
2023-12-26T17:57:32.937Z,7.25
2023-12-26T17:59:59.701Z,8.16
2023-12-26T18:02:26.454Z,8.02
2023-12-26T18:04:53.152Z,8.36
2023-12-26T18:07:19.934Z,7.83
2023-12-26T18:09:46.580Z,7.06
2023-12-26T18:12:13.273Z,7.91
2023-12-26T18:14:39.978Z,7.85
2023-12-26T18:17:06.655Z,7.15
2023-12-26T18:19:33.506Z,6.09
2023-12-26T18:22:00.312Z,7.32
2023-12-26T18:24:27.145Z,7.68
2023-12-26T18:26:53.961Z,7.26
2023-12-26T18:29:20.700Z,7.59
2023-12-26T18:31:47.779Z,8.03
2023-12-26T18:34:14.553Z,7.60
2023-12-26T18:36:41.362Z,7.89
2023-12-26T18:39:08.701Z,7.01
2023-12-26T18:41:40.745Z,7.71
2023-12-26T18:44:10.019Z,7.39
2023-12-26T18:46:41.207Z,7.96
2023-12-26T18:49:08.861Z,7.74
2023-12-26T18:51:35.818Z,5.88
2023-12-26T18:54:03.147Z,7.26
2023-12-26T18:56:29.881Z,7.24
2023-12-26T18:58:57.392Z,6.22
2023-12-26T19:01:24.260Z,7.20
2023-12-26T19:03:56.156Z,6.20
2023-12-26T19:06:23.041Z,7.14
2023-12-26T19:08:49.778Z,7.51
2023-12-26T19:11:17.760Z,7.21
2023-12-26T19:13:44.802Z,7.72
2023-12-26T19:16:11.747Z,7.89
2023-12-26T19:18:38.604Z,7.61
2023-12-26T19:21:05.556Z,8.10
2023-12-26T19:23:32.245Z,7.82
2023-12-26T19:25:59.090Z,7.85
2023-12-26T19:28:26.022Z,7.90
2023-12-26T19:30:52.854Z,7.68
2023-12-26T19:33:20.429Z,7.78
2023-12-26T19:35:47.279Z,7.97
2023-12-26T19:38:15.124Z,7.99
2023-12-26T19:40:42.061Z,7.32
2023-12-26T19:43:08.887Z,7.61
2023-12-26T19:45:35.720Z,7.64
2023-12-26T19:48:02.902Z,7.56
2023-12-26T19:50:29.870Z,7.40
2023-12-26T19:52:56.730Z,7.39
2023-12-26T19:55:23.530Z,7.61
2023-12-26T19:57:50.193Z,7.79
2023-12-26T20:00:17.062Z,7.47
2023-12-26T20:02:43.808Z,6.44
2023-12-26T20:05:11.214Z,6.33
2023-12-26T20:07:39.144Z,6.59
2023-12-26T20:10:06.539Z,7.70
2023-12-26T20:12:33.540Z,6.95
2023-12-26T20:15:00.581Z,7.20
2023-12-26T20:17:27.656Z,7.60
2023-12-26T20:19:54.603Z,7.57
2023-12-26T20:22:21.451Z,7.61
2023-12-26T20:24:48.519Z,7.58
2023-12-26T20:27:15.299Z,7.72
2023-12-26T20:29:42.206Z,7.11
2023-12-26T20:32:08.914Z,7.46
2023-12-26T20:34:35.818Z,7.20
2023-12-26T20:37:02.645Z,7.30
2023-12-26T20:39:29.423Z,7.53
2023-12-26T20:41:56.444Z,7.60
2023-12-26T20:44:23.734Z,7.81
2023-12-26T20:46:51.836Z,7.25
2023-12-26T20:49:20.162Z,6.37
2023-12-26T20:51:47.211Z,7.37
2023-12-26T20:54:15.666Z,7.25
2023-12-26T20:56:43.526Z,7.42
2023-12-26T20:59:10.583Z,7.09
2023-12-26T21:01:37.778Z,7.33
2023-12-26T21:04:05.816Z,7.04
2023-12-26T21:06:33.064Z,7.42
2023-12-26T21:08:59.990Z,6.67
2023-12-26T21:11:26.886Z,6.72
2023-12-26T21:13:55.778Z,6.87
2023-12-26T21:16:22.646Z,7.04
2023-12-26T21:18:52.850Z,7.09
2023-12-26T21:21:21.045Z,5.66
2023-12-26T21:23:48.131Z,7.37
2023-12-26T21:26:15.336Z,7.13
2023-12-26T21:28:42.304Z,7.42
2023-12-26T21:31:09.273Z,7.48
2023-12-26T21:33:37.265Z,7.24
2023-12-26T21:36:04.929Z,6.91
2023-12-26T21:38:33.060Z,7.15
2023-12-26T21:40:59.819Z,6.49
2023-12-26T21:43:26.594Z,7.28
2023-12-26T21:45:58.536Z,7.26
2023-12-26T21:48:25.716Z,6.75
2023-12-26T21:50:52.773Z,5.52
2023-12-26T21:53:19.443Z,6.41
2023-12-26T21:55:46.541Z,6.93
2023-12-26T21:58:13.258Z,7.02
2023-12-26T22:00:40.072Z,6.95
2023-12-26T22:03:07.296Z,7.02
2023-12-26T22:05:34.050Z,7.06
2023-12-26T22:08:00.769Z,6.71
2023-12-26T22:10:27.759Z,6.60
2023-12-26T22:12:54.517Z,6.72
2023-12-26T22:15:24.034Z,6.81
2023-12-26T22:17:51.616Z,6.84
2023-12-26T22:20:18.991Z,6.85
2023-12-26T22:22:45.645Z,5.96
2023-12-26T22:25:12.302Z,6.49
2023-12-26T22:27:39.066Z,6.84
2023-12-26T22:30:06.517Z,6.62
2023-12-26T22:32:33.365Z,6.67
2023-12-26T22:35:00.332Z,6.96
2023-12-26T22:37:27.490Z,6.10
2023-12-26T22:39:54.478Z,6.61
2023-12-26T22:42:21.164Z,6.49
2023-12-26T22:44:47.983Z,7.01
2023-12-26T22:47:14.677Z,5.83
2023-12-26T22:49:41.975Z,7.02
2023-12-26T22:52:11.025Z,6.77
2023-12-26T22:54:40.447Z,6.58
2023-12-26T22:57:08.397Z,5.89
2023-12-26T22:59:35.086Z,6.48
2023-12-26T23:02:03.116Z,6.45
2023-12-26T23:04:30.021Z,6.00
2023-12-26T23:06:56.852Z,6.38
2023-12-26T23:09:23.758Z,6.67
2023-12-26T23:11:50.740Z,6.06
2023-12-26T23:14:17.378Z,5.24
2023-12-26T23:16:45.379Z,6.24
2023-12-26T23:19:12.826Z,6.53
2023-12-26T23:21:39.831Z,6.43
2023-12-26T23:24:07.609Z,6.30
2023-12-26T23:26:34.603Z,6.21
2023-12-26T23:29:03.846Z,6.39
2023-12-26T23:31:32.325Z,6.31
2023-12-26T23:33:59.625Z,6.66
2023-12-26T23:36:26.404Z,6.45
2023-12-26T23:38:53.136Z,6.13
2023-12-26T23:41:19.831Z,5.62
2023-12-26T23:43:46.451Z,6.02
2023-12-26T23:46:13.185Z,6.50
2023-12-26T23:48:40.378Z,5.52
2023-12-26T23:51:07.127Z,6.14
2023-12-26T23:53:33.770Z,6.56
2023-12-26T23:56:00.493Z,6.21
2023-12-26T23:58:27.160Z,6.49
